createdAt,value
2022-12-14T00:00:49.144Z,-11.21
2022-12-14T00:05:06.584Z,-11.21
2022-12-14T00:09:23.458Z,-11.24
2022-12-14T00:13:42.376Z,-11.24
2022-12-14T00:18:00.219Z,-11.21
2022-12-14T00:22:17.296Z,-11.29
2022-12-14T00:26:34.344Z,-11.42
2022-12-14T00:30:58.689Z,-11.46
2022-12-14T00:35:17.899Z,-11.52
2022-12-14T00:39:34.884Z,-11.56
2022-12-14T00:43:51.845Z,-11.60
2022-12-14T00:48:08.901Z,-11.63
2022-12-14T00:52:25.703Z,-11.65
2022-12-14T00:56:43.039Z,-11.66
2022-12-14T01:01:03.424Z,-11.70
2022-12-14T01:05:20.550Z,-11.73
2022-12-14T01:09:37.462Z,-11.77
2022-12-14T01:13:56.518Z,-11.84
2022-12-14T01:18:13.381Z,-11.86
2022-12-14T01:22:30.525Z,-11.86
2022-12-14T01:26:47.411Z,-11.86
2022-12-14T01:31:11.389Z,-11.90
2022-12-14T01:35:28.523Z,-11.93
2022-12-14T01:39:46.544Z,-11.96
2022-12-14T01:44:23.680Z,-11.97
2022-12-14T01:48:40.632Z,-11.96
2022-12-14T01:53:06.142Z,-11.97
2022-12-14T01:57:35.926Z,-11.94
2022-12-14T02:01:54.205Z,-11.89
2022-12-14T02:06:26.801Z,-11.80
2022-12-14T02:10:45.507Z,-11.65
2022-12-14T02:15:03.201Z,-11.48
2022-12-14T02:19:22.583Z,-11.28
2022-12-14T02:23:50.623Z,-11.12
2022-12-14T02:28:19.896Z,-10.96
2022-12-14T02:33:54.165Z,-10.79
2022-12-14T02:38:44.507Z,-10.70
2022-12-14T02:43:18.273Z,-10.77
2022-12-14T02:48:01.226Z,-10.90
2022-12-14T02:52:42.718Z,-10.97
2022-12-14T02:57:17.850Z,-11.05
2022-12-14T03:01:36.962Z,-11.15
2022-12-14T03:05:59.297Z,-11.22
2022-12-14T03:10:37.401Z,-11.27
2022-12-14T03:14:56.207Z,-11.31
2022-12-14T03:19:23.780Z,-11.31
2022-12-14T03:23:44.083Z,-11.31
2022-12-14T03:28:23.366Z,-11.31
2022-12-14T03:32:48.040Z,-11.29
2022-12-14T03:37:20.746Z,-11.27
2022-12-14T03:42:05.133Z,-11.29
2022-12-14T03:46:46.328Z,-11.28
2022-12-14T03:51:34.610Z,-11.24
2022-12-14T03:56:13.194Z,-11.19
2022-12-14T04:00:35.694Z,-11.15
2022-12-14T04:05:12.537Z,-11.14
2022-12-14T04:09:57.973Z,-11.10
2022-12-14T04:14:41.278Z,-10.97
2022-12-14T04:19:06.486Z,-10.83
2022-12-14T04:23:51.725Z,-10.72
2022-12-14T04:28:36.044Z,-10.56
2022-12-14T04:32:58.489Z,-10.41
2022-12-14T04:37:19.827Z,-10.24
2022-12-14T04:41:43.868Z,-10.11
2022-12-14T04:46:35.165Z,-10.00
2022-12-14T04:51:15.367Z,-9.90
2022-12-14T04:55:54.142Z,-9.87
2022-12-14T05:00:12.290Z,-9.96
2022-12-14T05:05:25.290Z,-9.93
2022-12-14T05:10:03.812Z,-9.98
2022-12-14T05:14:40.020Z,-9.85
2022-12-14T05:18:57.358Z,-9.76
2022-12-14T05:23:15.050Z,-9.66
2022-12-14T05:27:32.173Z,-9.62
2022-12-14T05:31:49.587Z,-9.51
2022-12-14T05:36:07.467Z,-9.45
2022-12-14T05:40:24.270Z,-9.38
2022-12-14T05:44:41.203Z,-9.27
2022-12-14T05:48:58.027Z,-9.11
2022-12-14T05:53:15.086Z,-8.91
2022-12-14T05:57:32.238Z,-8.86
2022-12-14T06:01:50.717Z,-8.90
2022-12-14T06:06:09.288Z,-8.79
2022-12-14T06:10:26.330Z,-8.69
2022-12-14T06:14:43.170Z,-8.59
2022-12-14T06:19:03.782Z,-8.52
2022-12-14T06:23:20.783Z,-8.41
2022-12-14T06:27:37.796Z,-8.31
2022-12-14T06:31:54.669Z,-8.20
2022-12-14T06:36:30.400Z,-8.06
2022-12-14T06:40:47.289Z,-8.00
2022-12-14T06:45:04.808Z,-7.79
2022-12-14T06:49:22.423Z,-7.69
2022-12-14T06:53:39.309Z,-7.63
2022-12-14T06:57:56.722Z,-7.52
2022-12-14T07:02:13.723Z,-7.35
2022-12-14T07:06:36.792Z,-7.23
2022-12-14T07:10:58.910Z,-7.11
2022-12-14T07:15:19.329Z,-7.01
2022-12-14T07:19:36.450Z,-6.86
2022-12-14T07:23:53.878Z,-6.76
2022-12-14T07:28:10.735Z,-6.68
2022-12-14T07:32:27.766Z,-6.57
2022-12-14T07:36:44.644Z,-6.44
2022-12-14T07:41:06.865Z,-6.31
2022-12-14T07:45:23.715Z,-6.23
2022-12-14T07:49:44.079Z,-6.09
2022-12-14T07:54:02.037Z,-5.90
2022-12-14T07:58:19.105Z,-5.69
2022-12-14T08:02:36.321Z,-5.58
2022-12-14T08:06:53.688Z,-5.36
2022-12-14T08:11:12.090Z,-5.31
2022-12-14T08:15:28.937Z,-5.23
2022-12-14T08:19:46.220Z,-5.16
2022-12-14T08:24:03.403Z,-5.06
2022-12-14T08:28:21.687Z,-4.88
2022-12-14T08:32:38.579Z,-4.72
2022-12-14T08:36:55.711Z,-4.54
2022-12-14T08:41:16.782Z,-4.36
2022-12-14T08:45:33.953Z,-4.30
2022-12-14T08:49:51.028Z,-4.24
2022-12-14T08:54:07.875Z,-4.29
2022-12-14T08:58:25.474Z,-4.31
2022-12-14T09:02:42.646Z,-4.55
2022-12-14T09:06:59.943Z,-4.57
2022-12-14T09:11:19.363Z,-4.55
2022-12-14T09:15:36.513Z,-4.65
2022-12-14T09:19:53.504Z,-4.73
2022-12-14T09:24:10.472Z,-4.73
2022-12-14T09:28:28.226Z,-4.69
2022-12-14T09:32:50.581Z,-4.48
2022-12-14T09:37:07.842Z,-4.10
2022-12-14T09:41:34.395Z,-3.77
2022-12-14T09:45:56.307Z,-3.48
2022-12-14T09:50:18.224Z,-3.07
2022-12-14T09:54:38.568Z,-2.69
2022-12-14T09:58:58.989Z,-2.33
2022-12-14T10:04:00.128Z,-2.26
2022-12-14T10:08:42.027Z,-2.20
2022-12-14T10:13:32.616Z,-1.92
2022-12-14T10:18:57.759Z,-1.74
2022-12-14T10:23:05.281Z,-1.63
2022-12-14T10:27:26.273Z,-1.54
2022-12-14T10:32:06.843Z,-1.64
2022-12-14T10:36:35.301Z,-1.64
2022-12-14T10:41:00.396Z,-1.65
2022-12-14T10:45:41.601Z,-1.40
2022-12-14T10:50:05.557Z,-1.32
2022-12-14T10:54:34.029Z,-1.40
2022-12-14T10:59:18.771Z,-1.32
2022-12-14T11:03:35.690Z,-1.19
2022-12-14T11:07:52.878Z,-1.02
2022-12-14T11:12:24.314Z,-0.82
2022-12-14T11:16:42.021Z,0.09
2022-12-14T11:21:03.029Z,0.43
2022-12-14T11:25:47.024Z,0.05
2022-12-14T11:30:05.618Z,-0.40
2022-12-14T11:34:29.795Z,-1.03
2022-12-14T11:39:02.377Z,-1.50
2022-12-14T11:43:35.385Z,-0.92
2022-12-14T11:48:15.478Z,-0.19
2022-12-14T11:52:38.443Z,-0.51
2022-12-14T11:57:07.104Z,-0.62
2022-12-14T12:01:26.760Z,-0.93
2022-12-14T12:05:46.691Z,-1.17
2022-12-14T12:10:49.887Z,-0.98
2022-12-14T12:15:24.439Z,-0.68
2022-12-14T12:19:41.661Z,0.07
2022-12-14T12:25:00.975Z,0.28
2022-12-14T12:29:36.886Z,-0.23
2022-12-14T12:34:01.985Z,-0.65
2022-12-14T12:38:35.990Z,-1.26
2022-12-14T12:43:19.569Z,-1.48
2022-12-14T12:47:50.912Z,-1.37
2022-12-14T12:52:26.894Z,-1.68
2022-12-14T12:56:49.346Z,-2.01
2022-12-14T13:01:31.244Z,-2.13
2022-12-14T13:05:49.446Z,-2.14
2022-12-14T13:10:32.616Z,-2.02
2022-12-14T13:14:51.540Z,-2.41
2022-12-14T13:24:16.850Z,-3.09
2022-12-14T13:28:52.154Z,-3.45
2022-12-14T13:33:54.740Z,-3.23
2022-12-14T13:38:52.352Z,-3.51
2022-12-14T13:43:27.337Z,-3.54
2022-12-14T13:47:55.616Z,-3.62
2022-12-14T13:52:40.286Z,-3.78
2022-12-14T13:57:12.383Z,-3.68
2022-12-14T14:01:48.016Z,-3.62
2022-12-14T14:06:12.100Z,-3.61
2022-12-14T14:10:39.959Z,-3.64
2022-12-14T14:15:08.694Z,-3.88
2022-12-14T14:19:28.944Z,-3.83
2022-12-14T14:24:06.558Z,-3.77
2022-12-14T14:28:30.454Z,-3.78
2022-12-14T14:32:47.694Z,-3.88
2022-12-14T14:37:20.018Z,-3.93
2022-12-14T14:41:41.894Z,-4.16
2022-12-14T14:46:06.386Z,-4.07
2022-12-14T14:50:33.261Z,-3.96
2022-12-14T14:55:21.660Z,-3.98
2022-12-14T14:59:50.828Z,-3.95
2022-12-14T15:04:23.831Z,-3.83
2022-12-14T15:08:56.843Z,-3.83
2022-12-14T15:13:33.832Z,-3.75
2022-12-14T15:17:51.232Z,-3.74
2022-12-14T15:22:13.711Z,-3.68
2022-12-14T15:26:34.844Z,-3.67
2022-12-14T15:30:51.875Z,-3.64
2022-12-14T15:35:17.436Z,-3.70
2022-12-14T15:39:43.660Z,-3.67
2022-12-14T15:44:01.216Z,-3.59
2022-12-14T15:48:35.140Z,-3.58
2022-12-14T15:52:56.405Z,-3.47
2022-12-14T15:57:19.281Z,-3.36
2022-12-14T16:01:54.173Z,-3.34
2022-12-14T16:06:13.464Z,-3.34
2022-12-14T16:10:33.162Z,-3.40
2022-12-14T16:14:59.959Z,-3.37
2022-12-14T16:19:28.930Z,-3.37
2022-12-14T16:23:50.239Z,-3.33
2022-12-14T16:28:35.933Z,-3.26
2022-12-14T16:33:07.254Z,-3.19
2022-12-14T16:37:32.803Z,-3.21
2022-12-14T16:42:01.252Z,-3.20
2022-12-14T16:46:18.553Z,-3.16
2022-12-14T16:55:19.978Z,-3.12
2022-12-14T16:59:44.262Z,-3.13
2022-12-14T17:04:05.806Z,-3.05
2022-12-14T17:08:23.234Z,-2.96
2022-12-14T17:12:40.380Z,-2.92
2022-12-14T17:17:01.890Z,-2.93
2022-12-14T17:21:27.479Z,-2.92
2022-12-14T17:25:47.896Z,-2.99
2022-12-14T17:30:06.176Z,-2.95
2022-12-14T17:34:24.289Z,-2.93
2022-12-14T17:38:41.750Z,-2.95
2022-12-14T17:42:59.057Z,-2.95
2022-12-14T17:47:16.250Z,-2.95
2022-12-14T17:51:41.870Z,-2.85
2022-12-14T17:55:59.602Z,-2.81
2022-12-14T18:00:38.985Z,-2.74
2022-12-14T18:04:56.050Z,-2.65
2022-12-14T18:09:13.178Z,-2.64
2022-12-14T18:13:34.692Z,-2.56
2022-12-14T18:17:51.924Z,-2.60
2022-12-14T18:22:11.122Z,-2.61
2022-12-14T18:26:28.147Z,-2.60
2022-12-14T18:31:00.841Z,-2.69
2022-12-14T18:35:24.681Z,-2.61
2022-12-14T18:39:41.923Z,-2.57
2022-12-14T18:44:00.662Z,-2.60
2022-12-14T18:48:17.732Z,-2.54
2022-12-14T18:52:34.739Z,-2.51
2022-12-14T18:56:51.991Z,-2.48
2022-12-14T19:01:16.306Z,-2.41
2022-12-14T19:05:33.896Z,-2.44
2022-12-14T19:09:51.107Z,-2.47
2022-12-14T19:14:08.648Z,-2.43
2022-12-14T19:18:25.736Z,-2.37
2022-12-14T19:22:43.499Z,-2.40
2022-12-14T19:27:00.626Z,-2.41
2022-12-14T19:31:17.966Z,-2.41
2022-12-14T19:35:35.044Z,-2.32
2022-12-14T19:39:53.858Z,-2.26
2022-12-14T19:44:10.936Z,-2.19
2022-12-14T19:48:28.186Z,-2.21
2022-12-14T19:52:45.270Z,-2.26
2022-12-14T19:57:03.530Z,-2.21
2022-12-14T20:01:20.716Z,-2.23
2022-12-14T20:05:37.946Z,-2.17
2022-12-14T20:09:55.249Z,-2.14
2022-12-14T20:14:14.032Z,-2.20
2022-12-14T20:18:32.366Z,-2.19
2022-12-14T20:22:49.551Z,-2.20
2022-12-14T20:27:06.834Z,-2.14
2022-12-14T20:31:23.880Z,-2.10
2022-12-14T20:35:42.378Z,-2.12
2022-12-14T20:39:59.276Z,-2.05
2022-12-14T20:44:16.545Z,-2.05
2022-12-14T20:48:33.431Z,-2.02
2022-12-14T20:52:50.387Z,-2.02
2022-12-14T20:57:07.239Z,-1.99
2022-12-14T21:01:24.903Z,-1.95
2022-12-14T21:05:42.940Z,-2.02
2022-12-14T21:09:59.983Z,-2.02
2022-12-14T21:14:17.887Z,-2.01
2022-12-14T21:18:34.993Z,-1.93
2022-12-14T21:22:51.884Z,-1.91
2022-12-14T21:27:15.158Z,-1.86
2022-12-14T21:31:32.902Z,-1.82
2022-12-14T21:35:49.988Z,-1.88
2022-12-14T21:40:08.466Z,-1.89
2022-12-14T21:44:26.106Z,-1.85
2022-12-14T21:48:43.264Z,-1.92
2022-12-14T21:53:00.308Z,-1.91
2022-12-14T21:57:41.896Z,-1.83
2022-12-14T22:02:04.702Z,-1.79
2022-12-14T22:06:21.650Z,-1.75
2022-12-14T22:10:38.757Z,-1.81
2022-12-14T22:14:55.835Z,-1.79
2022-12-14T22:19:22.856Z,-1.82
2022-12-14T22:23:43.501Z,-1.72
2022-12-14T22:28:01.092Z,-1.70
2022-12-14T22:32:18.177Z,-1.68
2022-12-14T22:36:36.975Z,-1.68
2022-12-14T22:41:00.470Z,-1.64
2022-12-14T22:45:17.546Z,-1.72
2022-12-14T22:49:34.467Z,-1.77
2022-12-14T22:53:52.344Z,-2.02
2022-12-14T22:58:12.098Z,-2.13
2022-12-14T23:02:30.343Z,-2.17
2022-12-14T23:06:47.666Z,-2.17
2022-12-14T23:11:23.524Z,-2.02
2022-12-14T23:15:58.965Z,-1.98
2022-12-14T23:20:35.063Z,-1.96
2022-12-14T23:25:10.521Z,-1.96
2022-12-14T23:29:46.706Z,-1.92
2022-12-14T23:34:22.655Z,-1.86
2022-12-14T23:38:58.469Z,-1.88
2022-12-14T23:43:36.007Z,-1.88
2022-12-14T23:48:15.568Z,-1.81
2022-12-14T23:52:51.377Z,-1.82
2022-12-14T23:57:27.344Z,-1.82
